Terminal Aerodrome Forecast
Issued by NWS

Home | Current Version | Previous Version | Text Only | Print | Product List | Glossary On
Versions: 1 2 3 4 5 6 7 8 9 10 11 12 13 14 15 16 17 18
000
FTUS46 KSEW 030500
TAFOLM
TAF
KOLM 030524Z 0306/0406 24012G20KT P6SM SCT040
     FM030900 20005KT P6SM SCT012 BKN020
      TEMPO 0312/0314 1SM BR BKN002
     FM031800 VRB04KT P6SM BKN030
     FM032100 34004KT P6SM SKC=

USA.gov is the U.S. government's official web portal to all federal, state and local government web resources and services.